Melrose, Ohio
Current Conditions -  °F | °C
As of 1:53 AM on Saturday 29 Nov 2014 (Local Time) from KDFI Reporting Station
Broken Clouds Broken Clouds  
Wind Chill: 26°   Ceiling: 11000
Heat Index: 33°   Visibility: 10mi
Dew Point: 21°   Wind: 8mph
Humidity: 61%   Direction: 190°S
Pressure: 30.02"   Gusts: NA
Location:  41.09°N, 84.42°W
Report Text: KDFI 290653Z AUTO 19007KT 10SM BKN110 01/M06 A3002 RMK AO2 SLP174 T00061061
Loading
Personal Weather Stations






























Interactive Weather Map New forecast layout! Learn more

10-Day Weather Forecast

Advertisements
Track Severe Weather on mobile